CLASSIFICA

CORRI FREGENE

Corsa su strada 21106 m

Fregene (RM) 11/02/2018

DIVISIONI:
COMPETITIVA     CLASSIFICA:   ASSOLUTA    M     F    
CATEGORIE:   TUTTE    |   SF   |   SF35   |   SF40   |   SF45   |   SF50   |   SF55   |   SF60   |   SF65   |   SM   |   SM35   |   SM40   |   SM45   |   SM50   |   SM55   |   SM60   |   SM65   |   SM70   |   SM75  
ALTRO: Classifica a squadra 
FILTRO:
  Atleta      Team        Pulisci       Atleti classificati COMPETITIVA: 1206  

Cliccare sulle colonne per cambiare ordinamento Pagina:   | 1 | | 2 | | 3 | | 4 | | 5 | | 6 | | 7 | | 8 | | 9 | | 10 | | 11 | | 12 | | 13 | | 14 | | 15 | | 16 | | 17 | | 18 | | 19 | | 20 | | 21 | | 22 | | 23 | | 24 | | 25 |
Azioni Pos. M/F Cat. P.Cat. Pett Naz Atleta Squadra Tempo RealTime Distacco in tempo Distacco in metri Min/Km
11SM35012BUCCILLI CARMINEASD ATLETICA SANTA MARINELLA01:08:07 01:08:07 00:00:00 0 00:03:14
22SM024VALENTI IVANATLETICA CASTELLO01:10:17 01:10:17 00:02:10 650 00:03:20
33SM3501LIBERATORE DOMENICOPOD. GRUPPO SOLIDARIETA01:12:34 01:12:34 00:04:27 1.294 00:03:26
44SM40117BIAGIONI ALESSIOA.S.D. PIANO MA ARRIVIAMO01:16:15 01:16:15 00:08:08 2.251 00:03:37
55SM116CONFORTI GIULIOA.S.D. PIANO MA ARRIVIAMO01:16:43 01:16:43 00:08:36 2.365 00:03:38
66SM40221GRANELLA GABRIELEMONTI DELLA TOLFA L'AIRONE01:17:09 01:17:09 00:09:02 2.471 00:03:39
77SM403803CASALINI VITTORIOTIRRENO ATLETICA CIVITAVECCHIA01:17:22 01:17:22 00:09:15 2.523 00:03:40
88SM4046MACOLINO ADOLFOGRUPPO MILLEPIEDI LADISPOLI01:17:47 01:17:47 00:09:40 2.622 00:03:41
99SM45113D'ORAZIO ALESSANDROMONTI DELLA TOLFA L'AIRONE01:18:08 01:18:08 00:10:01 2.705 00:03:42
1010SM452432BOUDOUMA YAHYASABINA MARATHON CLUB01:18:21 01:18:21 00:10:14 2.756 00:03:43
1111SM351376STABILE ANDREAVITAMINA RUNNING TEAM01:18:21 01:18:21 00:10:14 2.756 00:03:43
1212SM3521202TODINI ANDREAA.S.D. FREE RUNNERS01:18:22 01:18:18 00:10:15 2.760 00:03:43
1313SM45342FOSSATELLI EMILIANOASD SEMPRE DI CORSA TEAM01:18:28 01:18:28 00:10:21 2.783 00:03:43
1414SM551280FARAONI CLAUDIOATL. DI MARCO SPORT01:18:41 01:18:39 00:10:34 2.834 00:03:44
1515SM4057KIRIELEISON EMANUELEA.S.D. X-SOLID SPORT LAB01:18:55 01:18:55 00:10:48 2.888 00:03:44
1616SM406275CARDONA CRUZ LUIS ELIASFASHIONSPORT01:19:33 01:19:33 00:11:26 3.033 00:03:46
1717SM501371FRATTICCI FRANCESCOASD VITAMINA RUNNING TEAM01:19:35 01:19:35 00:11:28 3.041 00:03:46
1818SM35346PRODIUS ROMANA.S.D. LBM SPORT TEAM01:19:37 01:19:37 00:11:30 3.048 00:03:46
1919SM45435CEPRAGA IGORASD SEMPRE DI CORSA TEAM01:19:38 01:19:38 00:11:31 3.052 00:03:46
2020SM40739D'AMICO BRUNOA.S.D. LBM SPORT TEAM01:19:43 01:19:43 00:11:36 3.071 00:03:47
2121SM408233BORELLI DANIELEA.S.C.D. ISOLA SACRA01:19:52 01:19:52 00:11:45 3.105 00:03:47
2222SM40920GALASSI FABIANOA.S. AMATORI VILLA PAMPHILI01:20:05 01:20:05 00:11:58 3.153 00:03:48
2323SM35436GAFFI MIRCOASD RUNNER TRAINER01:20:14 01:20:13 00:12:07 3.187 00:03:48
2424SM4010160PAONE RAFFAELEGRUPPO MILLEPIEDI LADISPOLI01:20:18 01:20:16 00:12:11 3.202 00:03:48
2525SM4011741CADME PARRA MESIAS OCTAVIOSABINA MARATHON CLUB01:20:26 01:20:26 00:12:19 3.231 00:03:49
2626SM455348VARI CLAUDIOVILLA AURELIA SPORTING CLUB01:20:33 01:20:32 00:12:26 3.257 00:03:49
2727SM5021052GIANNINI DANIELEG.S. BANCARI ROMANI01:21:00 01:20:56 00:12:53 3.356 00:03:50
2828SM401245GRILLO MANUELEOLIMPIA 200401:21:23 01:21:23 00:13:16 3.440 00:03:51
2929SM401333DEL NEGRO ROBERTOG.S. BANCARI ROMANI01:21:25 01:21:25 00:13:18 3.447 00:03:52
3030SM401427CAPARDI MAUROASD ANGUILLARA SABAZIA RUNNING CLUB01:21:32 01:21:32 00:13:25 3.473 00:03:52
3131SM2949BORNETI MARCOASD ANGUILLARA SABAZIA RUNNING CLUB01:21:33 01:21:33 00:13:26 3.476 00:03:52
3232SM45638ZAMPARELLI UGOA.S.D. LBM SPORT TEAM01:21:36 01:21:35 00:13:29 3.487 00:03:52
3333SM457419COSENTINO DOMENICOSABINA MARATHON CLUB01:21:36 01:21:36 00:13:29 3.487 00:03:52
3434SM40151201CAVOLA DAMIANOA.S.D. FREE RUNNERS01:21:44 01:21:39 00:13:37 3.516 00:03:52
3535SM31111FICORELLA FILIPPOS.S. LAZIO ATLETICA01:21:57 01:21:55 00:13:50 3.562 00:03:53
3636SM401619MINICI GIUSEPPEA.S.D. PIANO MA ARRIVIAMO01:22:14 01:20:29 00:14:07 3.623 00:03:54
3737SM35515POZZI GIORGIORUNCARD FIDAL01:22:18 01:22:16 00:14:11 3.637 00:03:54
3838SM50323BOTTA ALBERTOPOD. GRUPPO SOLIDARIETA01:22:24 01:22:24 00:14:17 3.658 00:03:54
3939SM45828GERMONI ALESSANDROASD ANGUILLARA SABAZIA RUNNING CLUB01:22:30 01:22:30 00:14:23 3.679 00:03:55
4040SM459721CARNEVALI GIORGIOA.S.D. ROMATLETICA FOOTWORKS01:22:39 01:22:34 00:14:32 3.711 00:03:55
4141SM356390DI COLA ALESSANDROPODISTICA CASALOTTI01:22:43 01:22:43 00:14:36 3.725 00:03:55
421SF35025CASASANTA LAURAG.S. CAT SPORT ROMA01:22:52 01:22:52 00:14:45 3.756 00:03:56
4342SM4510801MASTRODICASA ANDREAGIOVANNI SCAVO 200001:23:02 01:23:02 00:14:55 3.791 00:03:56
4443SM504696MANSUETI RENZOA.S.D. ATLETICA MONTE MARIO01:23:02 01:22:57 00:14:55 3.791 00:03:56
4544SM4319HUANG HUA FRANCESCOCALCATERRA SPORT ASD01:23:03 01:23:02 00:14:56 3.795 00:03:56
4645SM505671CASINI GIOVANNIA.S.D. ATLETICA MONTE MARIO01:23:03 01:23:00 00:14:56 3.795 00:03:56
4746SM4017868POLLETTI EMILIANOA.S.D. AMATORI TOP RUNNERS CASTELLI ROMANI01:23:04 01:23:01 00:14:57 3.798 00:03:56
4847SM401882BRAVETTI MARCOA.S.D. LAZIO RUNNERS TEAM01:23:20 01:23:17 00:15:13 3.853 00:03:57
4948SM451129PIERDOMENICO GIANLUCAASD ANGUILLARA SABAZIA RUNNING CLUB01:23:44 01:23:44 00:15:37 3.936 00:03:58
5049SM35722MIRABELLI PIETROA.S. AMATORI VILLA PAMPHILI01:23:48 01:23:46 00:15:41 3.950 00:03:58
5150SM4019859MECHELLI ALESSIOA.S.D. ATLETICA FIANO ROMANO01:23:48 01:23:47 00:15:41 3.950 00:03:58
5251SM358457TOMEI RICCARDOA.S.D. GO RUNNING01:23:50 01:23:48 00:15:43 3.956 00:03:58
5352SM35926MINELLA DIEGOG.S. CAT SPORT ROMA01:23:51 01:23:51 00:15:44 3.960 00:03:58
5453SM451277PAREGIANI GIANLUCAA.S. ROMA ROAD R.CLUB01:24:07 01:24:07 00:16:00 4.014 00:03:59
5554SM5269PUCILLI MARCOA.S.D. PODISTICA ALSIVM LADISPOLI01:24:08 01:24:00 00:16:01 4.018 00:03:59
5655SM351030MATTACCHIONI DARIOA.S.D. ATLETICA MONTE MARIO01:24:11 01:24:09 00:16:04 4.028 00:03:59
5756SM55214FURLAN CLAUDIOMONTI DELLA TOLFA L'AIRONE01:24:20 01:24:18 00:16:13 4.058 00:04:00
5857SM451311LAURENTI PIETROASD VITAMINA RUNNING TEAM01:24:32 01:24:31 00:16:25 4.098 00:04:00
5958SM5531045FARGIONE VINCENZOG.S. BANCARI ROMANI01:24:33 01:24:31 00:16:26 4.102 00:04:00
6059SM4020186MARZULLO PAOLODUE PONTI SRL01:24:34 01:24:33 00:16:27 4.105 00:04:00
6160SM5541287MORETTI DOMENICOBITONTO SPORTIVA01:24:36 01:24:32 00:16:29 4.112 00:04:01
6261SM40212SALVAGGIO SALVATOREA.S.D. NOTO BAROCCA01:24:41 01:24:41 00:16:34 4.128 00:04:01
6362SM6257DE CARVALHO LINCOLN JAVIERAS. TRA. ROMA01:24:41 01:24:38 00:16:34 4.128 00:04:01
6463SM4022317PALLESCHI DANIELERUNNING EVOLUTION COLLINE ROMANE01:24:49 01:24:45 00:16:42 4.155 00:04:01
6564SM451431SORIANI STEFANORUNNERS FOR EMERGENCY01:24:53 01:24:51 00:16:46 4.168 00:04:01
662SF032CARNICELLI SARAACSI ITALIA ATLETICA01:25:01 01:25:01 00:16:54 4.195 00:04:02
6765SM4515817ARELLANO BARCO CARLOS IVANG.S. CAT SPORT ROMA01:25:01 01:25:00 00:16:54 4.195 00:04:02
6866SM7981MASSERIZZI MARCOASD RUNNER TRAINER01:25:16 01:25:11 00:17:09 4.245 00:04:02
6967SM85CIOCCHETTI MASSIMORUNCARD FIDAL01:25:19 01:25:19 00:17:12 4.255 00:04:03
7068SM45161263CUNEO ANDREADUE PONTI SRL01:25:22 01:25:22 00:17:15 4.264 00:04:03
7169SM9702MINANI RASHIDA.S.D. ATLETICA MONTE MARIO01:25:25 01:25:15 00:17:18 4.274 00:04:03
7270SM601805VALERI LUCIANOG.S. POD. PRENESTE01:25:31 01:25:28 00:17:24 4.294 00:04:03
7371SM506108VENDOLA FABIOFULMINI E SAETTE A.S.D.01:25:33 01:25:31 00:17:26 4.300 00:04:03
7472SM40231146D'AMICO MARCOATLETICA FORUM SPORT CENTER01:25:37 01:25:26 00:17:30 4.314 00:04:03
7573SM10814OLIVI MAURIZIORUNCARD FIDAL01:25:51 01:25:02 00:17:44 4.359 00:04:04
7674SM4024935MARTINOLI MAURIZIORUNNERS FOR EMERGENCY01:25:54 01:25:40 00:17:47 4.369 00:04:04
7775SM50744NISTICO' FORTUNATOG.S. CAT SPORT ROMA01:26:01 01:26:00 00:17:54 4.392 00:04:05
7876SM4025333FABOZZI VINCENZOA.S.D. PODISTICA POMEZIA01:26:03 01:25:59 00:17:56 4.398 00:04:05
7977SM40269CIRILLO YURIA.S.D. LBM SPORT TEAM01:26:12 01:26:11 00:18:05 4.427 00:04:05
8078SM3511143CAVACINI CLAUDIOASD OLIMPIAEUR CAMP01:26:19 01:26:16 00:18:12 4.450 00:04:05
8179SM11401DI SALVO LUCALFREDOA.S.D. PIANO MA ARRIVIAMO01:26:30 01:26:02 00:18:23 4.485 00:04:06
8280SM508132GIACOMETTI FABRIZIOASDGS CERVETERI RUNNERS01:26:31 01:26:25 00:18:24 4.488 00:04:06
8381SM5551016TAMBONE AUGUSTOTENNIS CLUB PARIOLI01:26:47 01:26:01 00:18:40 4.539 00:04:07
8482SM35121143CATANIA CLAUDIOATLETICA FORUM SPORT CENTER01:26:48 01:26:42 00:18:41 4.542 00:04:07
8583SM121184ATTANASIO DANIELEA.S. AMATORI VILLA PAMPHILI01:26:58 01:26:51 00:18:51 4.574 00:04:07
8684SM35131054HUZA MARIUS RAZVANG.S. BANCARI ROMANI01:27:03 01:26:38 00:18:56 4.590 00:04:08
8785SM45171151FOGGIA MASSIMILIANOATLETICA FORUM SPORT CENTER01:27:11 01:27:05 00:19:04 4.615 00:04:08
8886SM3514832DRAGHI GIOVANNIG.S. CAT SPORT ROMA01:27:13 01:27:09 00:19:06 4.622 00:04:08
8987SM4027170MANZONE EMANUELERUNCARD FIDAL01:27:17 01:27:15 00:19:10 4.634 00:04:08
9088SM509440SCODANIBBIO CARLOOLIMPIA 200401:27:24 01:27:17 00:19:17 4.656 00:04:09
9189SM4518543PROPERZI ANTONIOA.S. AMATORI VILLA PAMPHILI01:27:31 01:27:27 00:19:24 4.678 00:04:09
9290SM4519163GEMELLI DANIELEA.S.D. SMACLIBERTY01:27:32 01:27:16 00:19:25 4.681 00:04:09
9391SM4028831DI FORTUNATO DAVIDG.S. CAT SPORT ROMA01:27:33 01:27:14 00:19:26 4.684 00:04:09
9492SM40291059LANZETTI LUCAG.S. BANCARI ROMANI01:27:34 01:27:15 00:19:27 4.687 00:04:09
9593SM13971DE ANGELIS DANILOFARATLETICA01:27:34 01:27:03 00:19:27 4.687 00:04:09
9694SM45201270DE FRANCESCO DOMENICOTEAM CAMELOT A.S.D.01:27:35 01:27:25 00:19:28 4.691 00:04:09
9795SM501075CERRONE MASSIMILIANOA.S.D. RUNNING EVOLUTION01:27:38 01:27:32 00:19:31 4.700 00:04:09
9896SM4521320BALLARINI ANDREAMONTI DELLA TOLFA L'AIRONE01:27:42 01:27:39 00:19:35 4.712 00:04:09
9997SM45221238ASHKRE AMDEUHN AYELG.S. CAT SPORT ROMA01:27:48 01:27:35 00:19:41 4.731 00:04:10
10098SM50111060LEONCINI CLAUDIOG.S. BANCARI ROMANI01:27:51 01:27:45 00:19:44 4.740 00:04:10
10199SM3515378ASCOLI CARLOPODISTICA CASALOTTI01:28:02 01:28:02 00:19:55 4.775 00:04:10
102100SM45231168CAPONERI MARCOG.S. BANCARI ROMANI01:28:28 01:28:23 00:20:21 4.855 00:04:12
103101SM4524955MARTOLINI ALBERTOA.S. AMATORI VILLA PAMPHILI01:28:28 01:28:23 00:20:21 4.855 00:04:12
104102SM4525863ROTARAS IONGENZANO MARATHON A.S.D.01:28:28 01:28:24 00:20:21 4.855 00:04:12
105103SM452676BOLDRIN FEDERICOCALCATERRA SPORT ASD01:28:30 01:28:28 00:20:23 4.861 00:04:12
106104SM45271271DANIELE GIUSEPPETEAM CAMELOT A.S.D.01:28:33 01:28:23 00:20:26 4.870 00:04:12
107105SM3516582PAPA PASQUALEASD ANGUILLARA SABAZIA RUNNING CLUB01:28:37 01:27:37 00:20:30 4.882 00:04:12
108106SM4030179BELLOCCO DANILOFIAMME AZZURRE MOVIMENTO E SPORT01:28:38 01:28:34 00:20:31 4.885 00:04:12
109107SM501243BONTEMPI FABIOPOD. GRUPPO SOLIDARIETA01:28:40 01:28:39 00:20:33 4.891 00:04:12
110108SM5561162MOAURO VINCENZOATLETICA FORUM SPORT CENTER01:28:40 01:28:37 00:20:33 4.891 00:04:12
111109SM351759REALI ALESSANDROASD GO RUNNING01:28:42 01:28:42 00:20:35 4.897 00:04:12
112110SM651722PENTANGELO MARIOASD PODISTICA CIAMPINO01:28:43 01:28:41 00:20:36 4.900 00:04:12
113111SM5013175MANCINI ROMANOBIANCO MODA SPORT CIAMPINO01:28:45 01:28:42 00:20:38 4.906 00:04:12
114112SM4031685FATTORINI RICCARDOA.S.D. ATLETICA MONTE MARIO01:28:47 01:28:43 00:20:40 4.912 00:04:12
115113SM501479PUGLIESE FRANCESCOVILLA AURELIA SPORTING CLUB01:28:56 01:28:54 00:20:49 4.940 00:04:13
116114SM5015397MAZZONI GIANCARLOPODISTICA CASALOTTI01:29:10 01:29:08 00:21:03 4.982 00:04:14
117115SM602335NAPOLI FILIPPOA.S.D. PODISTICA POMEZIA01:29:24 01:29:23 00:21:17 5.024 00:04:14
1183SF45034LUNGU LUMINITAG.S. BANCARI ROMANI01:29:25 01:29:24 00:21:18 5.027 00:04:14
119116SM652627CARA ANGELOMARATHON ROMA CASTELFUSANO01:29:25 01:29:23 00:21:18 5.027 00:04:14
120117SM4528961VERZINO ANTONIOA.S. AMATORI VILLA PAMPHILI01:29:30 01:29:25 00:21:23 5.042 00:04:14
121118SM5016820BORCAN LAURENTIU ADRIANG.S. CAT SPORT ROMA01:29:52 01:29:49 00:21:45 5.108 00:04:16
122119SM5017730BENEDETTI ALESSANDROCALCATERRA SPORT ASD01:29:55 01:29:54 00:21:48 5.117 00:04:16
123120SM14867MAIORANI ALESSANDROA.S.D. AMATORI TOP RUNNERS CASTELLI ROMANI01:29:56 01:29:50 00:21:49 5.120 00:04:16
124121SM4032579MESTO MASSIMOASD ANGUILLARA SABAZIA RUNNING CLUB01:29:59 01:29:28 00:21:52 5.128 00:04:16
125122SM40331119RINALDI TUFI FRANCESCOS.S. LAZIO ATLETICA01:30:00 01:29:57 00:21:53 5.131 00:04:16
126123SM557648SAVINA FABIORUNCARD FIDAL01:30:00 01:29:54 00:21:53 5.131 00:04:16
127124SM558630GRAZIOSI FELICEMARATHON ROMA CASTELFUSANO01:30:06 01:29:57 00:21:59 5.149 00:04:16
128125SM4529838IANNOLA IVANG.S. CAT SPORT ROMA01:30:21 01:29:03 00:22:14 5.193 00:04:17
129126SM4530626CALVANI MASSIMILIANOMARATHON ROMA CASTELFUSANO01:30:24 01:30:15 00:22:17 5.202 00:04:17
130127SM5018455TRAVAGLINI MAUROG.S. POD. PRENESTE01:30:25 01:30:23 00:22:18 5.205 00:04:17
131128SM40341028BIZZARRI NICOLAG.S. BANCARI ROMANI01:30:44 01:30:41 00:22:37 5.260 00:04:18
132129SM3518925FASTELLI MARCORUNNERS FOR EMERGENCY01:30:45 01:30:27 00:22:38 5.263 00:04:18
133130SM4035240BOSSONI FABRIZIOA.S.D. ATLETICA VILLA GUGLIELMI01:30:51 01:30:49 00:22:44 5.281 00:04:18
134131SM5019146FAIA ARMANDOALMAVIVA RUNNERS A.S.D.01:30:57 01:30:52 00:22:50 5.298 00:04:19
135132SM559604OROPALLO FRANCOA.S.D. LBM SPORT TEAM01:31:01 01:30:54 00:22:54 5.310 00:04:19
136133SM151175FIORANI GABRIELEBRAVETTA RUNNERS01:31:02 01:30:34 00:22:55 5.313 00:04:19
137134SM5020513GUGLIELMI MICHELEA.S. AMATORI VILLA PAMPHILI01:31:05 01:30:58 00:22:58 5.321 00:04:19
138135SM35191288MENEGARDI ALESSANDROFAIZANE RUNNERS01:31:07 01:30:58 00:23:00 5.327 00:04:19
139136SM55101000TAHA GAMAL EL DINDUE PONTI SRL01:31:08 01:31:00 00:23:01 5.330 00:04:19
1404SF13NASSO SILVIATIRRENO ATLETICA CIVITAVECCHIA01:31:09 01:31:08 00:23:02 5.333 00:04:19
141137SM4531331CARRETTUCCI ALESSIOA.S.D. PODISTICA POMEZIA01:31:11 01:30:54 00:23:04 5.339 00:04:19
142138SM5511760MARSONER ENRICOPOD. GRUPPO SOLIDARIETA01:31:14 01:30:59 00:23:07 5.347 00:04:19
143139SM35201076PELO IACOPOG.S. BANCARI ROMANI01:31:25 01:31:20 00:23:18 5.379 00:04:20
144140SM45321179DEL VESCOVO FABIOPOD. GRUPPO SOLIDARIETA01:31:26 01:31:10 00:23:19 5.382 00:04:20
145141SM4533862TARULLI RICCARDO STEFANORUNCARD FIDAL01:31:39 01:31:29 00:23:32 5.419 00:04:21
146142SM5512625CALORE GENNAROMARATHON ROMA CASTELFUSANO01:31:45 01:31:37 00:23:38 5.436 00:04:21
147143SM3521473BALZAMONTI DANIELEA.S. AMATORI VILLA PAMPHILI01:31:46 01:31:28 00:23:39 5.439 00:04:21
148144SM16259PATANE' FABIOA.S.D. PODISTICA ALSIVM LADISPOLI01:31:54 01:31:18 00:23:47 5.462 00:04:21
149145SM35221101HUSSAIN KHALILRUNNING CLUB MARATONA DI ROMA01:31:56 01:31:56 00:23:49 5.467 00:04:21
150146SM352392CARELLA MARCOA.S.D. LBM SPORT TEAM01:31:59 01:31:17 00:23:52 5.476 00:04:22
151147SM5513210DI TOMMASO ROBERTOA.S.C.D. ISOLA SACRA01:32:02 01:31:58 00:23:55 5.484 00:04:22
152148SM40361038CICIRIELLO ALESSANDROG.S. BANCARI ROMANI01:32:05 01:32:03 00:23:58 5.493 00:04:22
153149SM4534958SARGENTI MARCOA.S. AMATORI VILLA PAMPHILI01:32:13 01:31:33 00:24:06 5.515 00:04:22
154150SM40371004MERCANTI MARCOA.S.D. RUN FOR FUN01:32:44 01:32:31 00:24:37 5.602 00:04:24
1555SF45118MAZZA CARLAA.S.D. PIANO MA ARRIVIAMO01:32:50 01:32:48 00:24:43 5.619 00:04:24
156151SM4038144LOSITO ANTONELLORUNCARD FIDAL01:32:55 01:32:49 00:24:48 5.633 00:04:24
157152SM5021507FRISCIA MICHELEA.S. AMATORI VILLA PAMPHILI01:32:58 01:32:40 00:24:51 5.641 00:04:24
158153SM502296GALANTI ANGELOA.S.D. LBM SPORT TEAM01:32:59 01:32:11 00:24:52 5.644 00:04:24
159154SM50231057JORIO VALERIOG.S. BANCARI ROMANI01:33:00 01:32:53 00:24:53 5.647 00:04:24
160155SM5514675CHEN RANA.S.D. ATLETICA MONTE MARIO01:33:02 01:32:57 00:24:55 5.652 00:04:25
161156SM453595DEL PAPA FABRIZIOA.S.D. LBM SPORT TEAM01:33:05 01:32:29 00:24:58 5.661 00:04:25
162157SM5515882SANTINI ROBERTOA.S.D. ATLETICA MONTE MARIO01:33:08 01:32:56 00:25:01 5.669 00:04:25
163158SM403952TANDA FABRIZIOFILIPPIDE RUNNERS TEAM ASD01:33:08 01:33:08 00:25:01 5.669 00:04:25
164159SM4536338BIZZARRI SERGIOPOD. OSTIA01:33:10 01:33:07 00:25:03 5.674 00:04:25
165160SM502487TESTA LUIGIMARATHON ROMA CASTELFUSANO01:33:12 01:32:54 00:25:05 5.680 00:04:25
166161SM6031272SQUILLANTE MAURIZIOGIOVANNI SCAVO 200001:33:12 01:33:05 00:25:05 5.680 00:04:25
167162SM5025974CALAVITTA ANGELO GIOVANNIVIRTUS VILLA ADA01:33:16 01:32:29 00:25:09 5.691 00:04:25
168163SM4537496DEL QUONDAM MAUROA.S. AMATORI VILLA PAMPHILI01:33:22 01:33:15 00:25:15 5.707 00:04:25
169164SM45381129MILLI LUCAG.S. CAT SPORT ROMA01:33:27 01:33:26 00:25:20 5.721 00:04:26
170165SM4539197LAGNA MARCOA.S.D. VILLA DE SANCTIS01:33:30 01:33:19 00:25:23 5.729 00:04:26
171166SM17349FOCANTI FRANCESCOA.S.D. ATLETICA ENERGIA ROMA01:33:35 01:32:54 00:25:28 5.743 00:04:26
172167SM4540877SBORDONI FULVIOAMICI PARCO CASTELLI ROMANI01:33:39 01:33:25 00:25:32 5.754 00:04:26
173168SM3524677CICOGNA ALESSIOA.S.D. ATLETICA MONTE MARIO01:33:44 01:33:20 00:25:37 5.768 00:04:27
174169SM3525206BUTTARAZZI ANDREAA.S.C.D. ISOLA SACRA01:33:51 01:33:31 00:25:44 5.787 00:04:27
175170SM551678LAURI FRANCESCOA.S.D. ATLETICA PEGASO01:33:53 01:33:46 00:25:46 5.792 00:04:27
176171SM5026403GUERRERA WALTERA.S.D. PIANO MA ARRIVIAMO01:34:00 01:33:57 00:25:53 5.811 00:04:27
177172SM50271161REALI PAOLOATLETICA FORUM SPORT CENTER01:34:00 01:33:35 00:25:53 5.811 00:04:27
178173SM4541148PERSICHETTI GIAN PIEROASDGS CERVETERI RUNNERS01:34:00 01:33:53 00:25:53 5.811 00:04:27
1796SF401204BOSCO HANAA.S.C.D. ISOLA SACRA01:34:02 01:34:01 00:25:55 5.817 00:04:27
180174SM55171203CANESTRARI ANTONIOG. P. ATLETICA FALERIA01:34:12 01:34:09 00:26:05 5.844 00:04:28
1817SF45210MIDEI FEDERICADUE PONTI SRL01:34:14 01:34:08 00:26:07 5.849 00:04:28
182175SM4542990CAMILLI DIEGODUE PONTI SRL01:34:14 01:34:07 00:26:07 5.849 00:04:28
183176SM35264GUIDA VALERIOTIRRENO ATLETICA CIVITAVECCHIA01:34:15 01:34:14 00:26:08 5.852 00:04:28
1848SF2994DRESDA FRANCESCA ROMANADUE PONTI SRL01:34:17 01:34:10 00:26:10 5.857 00:04:28
185177SM50281301VARI MAURORUNCARD FIDAL01:34:17 01:34:14 00:26:10 5.857 00:04:28
186178SM5029977BIAGIONI ANDREAASD RUNNER TRAINER01:34:19 01:33:38 00:26:12 5.862 00:04:28
187179SM454386PIRARD PASCALMARATHON ROMA CASTELFUSANO01:34:19 01:34:14 00:26:12 5.862 00:04:28
188180SM4544514ILARDI ASHA.S. AMATORI VILLA PAMPHILI01:34:32 01:34:24 00:26:25 5.897 00:04:29
189181SM40401114MANCUSO FABIOS.S. LAZIO ATLETICA01:34:37 01:34:31 00:26:30 5.911 00:04:29
190182SM3527737CALISTI MARCOPOD. GRUPPO SOLIDARIETA01:34:39 01:34:04 00:26:32 5.916 00:04:29
191183SM35281210DIOGUARDI GIOVANNIA.S.D. LBM SPORT TEAM01:34:43 01:34:38 00:26:36 5.927 00:04:29
192184SM5518482CARLUCCI FRANCESCOA.S. AMATORI VILLA PAMPHILI01:34:45 01:34:37 00:26:38 5.932 00:04:29
193185SM4545720MARTINES SILVIOC. MAGISTRATI CORTE DEI CONTI01:34:45 01:34:07 00:26:38 5.932 00:04:29
194186SM5030836GALATI ANTONIOG.S. CAT SPORT ROMA01:34:47 01:34:39 00:26:40 5.938 00:04:29
195187SM5031673CASTILLO PANEZO GUIDO FAVIOA.S.D. ATLETICA MONTE MARIO01:34:49 01:34:36 00:26:42 5.943 00:04:30
196188SM4041279D'ALESSIO ALEXIOASD SEMPRE DI CORSA TEAM01:34:51 01:33:59 00:26:44 5.948 00:04:30
197189SM4546336PALLOTTINI ALESSIOA.S.D. PODISTICA POMEZIA01:34:54 01:34:19 00:26:47 5.956 00:04:30
198190SM45471077POLVERINI ANDREAG.S. BANCARI ROMANI01:35:01 01:34:41 00:26:54 5.975 00:04:30
199191SM4548503FIANO ILARIOA.S. AMATORI VILLA PAMPHILI01:35:03 01:33:36 00:26:56 5.980 00:04:30
200192SM4549377CARDUCCI AMATO DINORUNCARD FIDAL01:35:04 01:33:37 00:26:57 5.983 00:04:30
201193SM5519628DE ANGELIS FABIOMARATHON ROMA CASTELFUSANO01:35:06 01:35:01 00:26:59 5.988 00:04:30
202194SM4550895SCALIA ANTONIOA.S.D. PFIZER ITALIA RUNNING TEAM01:35:06 01:35:04 00:26:59 5.988 00:04:30
203195SM45511268TENAGLIA FABRIZIOA.S.D. LBM SPORT TEAM01:35:07 01:34:31 00:27:00 5.991 00:04:30
204196SM4552324VITTORE ALESSANDROMONTI DELLA TOLFA L'AIRONE01:35:10 01:34:48 00:27:03 5.999 00:04:31
205197SM4042141PIERAGOSTINI GIULIOMONTI DELLA TOLFA L'AIRONE01:35:11 01:34:55 00:27:04 6.001 00:04:31
206198SM4553300D'ANGELO PIERGIORGIOASD VILLA DE SANCTIS01:35:11 01:34:23 00:27:04 6.001 00:04:31
2079SF402433CHORODYNSKA DANUTAASD SEMPRE DI CORSA TEAM01:35:13 01:35:04 00:27:06 6.007 00:04:31
208199SM55201200PETRUCCI MASSIMOASD PUROSANGUE ATHLETICS CLUB01:35:15 01:35:09 00:27:08 6.012 00:04:31
209200SM4554479BUONOMO ANDREAA.S. AMATORI VILLA PAMPHILI01:35:16 01:33:45 00:27:09 6.014 00:04:31
210201SM4555586GIANNINI CLAUDIOASD SEMPRE DI CORSA TEAM01:35:16 01:34:23 00:27:09 6.014 00:04:31
211202SM5032894SANGIOVANNI FABIOA.S.D. PFIZER ITALIA RUNNING TEAM01:35:17 01:34:50 00:27:10 6.017 00:04:31
212203SM45561088UNGARO ANDREA PATRICKG.S. BANCARI ROMANI01:35:20 01:35:16 00:27:13 6.025 00:04:31
213204SM4043573BARZI FEDERICOASD ANGUILLARA SABAZIA RUNNING CLUB01:35:23 01:34:44 00:27:16 6.033 00:04:31
214205SM5521640RAMPOGNA MARCOMARATHON ROMA CASTELFUSANO01:35:28 01:35:22 00:27:21 6.046 00:04:31
21510SF453779RESTUCCIA FABIOLAPOD. GRUPPO SOLIDARIETA01:35:28 01:34:59 00:27:21 6.046 00:04:31
216206SM5522652FRANCESCANGELI SERGIOA.S.D. ATL. ENERGIA ROMA01:35:37 01:35:09 00:27:30 6.070 00:04:32
217207SM5033289PESCI MAUROPOLISPORTIVA COLLI ANIENE ASD01:35:45 01:35:18 00:27:38 6.091 00:04:32
218208SM4044255SCORPO DAVIDEA.S.D. ATLETICA VILLA GUGLIELMI01:35:47 01:35:39 00:27:40 6.096 00:04:32
219209SM604999RUGGERI RICCARDODUE PONTI SRL01:35:53 01:35:46 00:27:46 6.112 00:04:33
220210SM4557829DE FABIIS MASSIMILIANOG.S. CAT SPORT ROMA01:35:55 01:35:32 00:27:48 6.117 00:04:33
221211SM45581036CERIONI CARLOG.S. BANCARI ROMANI01:35:56 01:35:43 00:27:49 6.119 00:04:33
222212SM18869ROSSI DANILOA.S.D. AMATORI TOP RUNNERS CASTELLI ROMANI01:35:59 01:35:20 00:27:52 6.127 00:04:33
223213SM5034668ACUNZO PASQUALEA.S.D. ATLETICA MONTE MARIO01:35:59 01:35:25 00:27:52 6.127 00:04:33
224214SM5035472BALLI PAOLOA.S. AMATORI VILLA PAMPHILI01:36:03 01:35:45 00:27:56 6.138 00:04:33
225215SM4045866FERRARI MASSIMOA.S.D. AMATORI TOP RUNNERS CASTELLI ROMANI01:36:04 01:35:24 00:27:57 6.140 00:04:33
226216SM45591197TRASATTI ROBERTOPOD. GRUPPO SOLIDARIETA01:36:05 01:35:47 00:27:58 6.143 00:04:33
227217SM4560709PICCHI SIMONEA.S.D. ATLETICA MONTE MARIO01:36:05 01:35:52 00:27:58 6.143 00:04:33
228218SM3529718VASSALLO SALVATOREA.S.D. ATLETICA MONTE MARIO01:36:06 01:35:50 00:27:59 6.145 00:04:33
229219SM40461209VENTURINI GIANLUCAA.S.D. LIBERTAS OSTIA RUNNER AVIS01:36:07 01:35:56 00:28:00 6.148 00:04:33
230220SM4047864BRUOGNOLO ALESSANDRORUNCARD FIDAL01:36:08 01:35:58 00:28:01 6.151 00:04:33
231221SM4561557TIBALDI FABIOA.S. AMATORI VILLA PAMPHILI01:36:09 01:35:54 00:28:02 6.153 00:04:33
232222SM45621156MORI GIANLUCAATLETICA FORUM SPORT CENTER01:36:14 01:35:49 00:28:07 6.166 00:04:34
233223SM4563133ROMA PATRIZIOA.S.D. TRA LE RIGHE01:36:14 01:35:44 00:28:07 6.166 00:04:34
234224SM4564443MONDATI STEFANOASD TRAIL DEI DUE LAGHI01:36:16 01:35:23 00:28:09 6.171 00:04:34
23511SF454708PERUZZI LAURAA.S.D. ATLETICA MONTE MARIO01:36:16 01:36:03 00:28:09 6.171 00:04:34
236225SM3530699MASSETTI ENRICOA.S.D. ATLETICA MONTE MARIO01:36:19 01:35:02 00:28:12 6.179 00:04:34
237226SM4565578MARINI ROBERTOASD ANGUILLARA SABAZIA RUNNING CLUB01:36:21 01:35:50 00:28:14 6.184 00:04:34
238227SM191276FERRARO ALESSIOPOD. GRUPPO SOLIDARIETA01:36:22 01:35:52 00:28:15 6.187 00:04:34
239228SM40481233ZEGA FABRIZIOA.S.D. ATLETICA MONTE MARIO01:36:24 01:36:10 00:28:17 6.192 00:04:34
240229SM5036288LUCIANI ELIAPOLISPORTIVA COLLI ANIENE ASD01:36:25 01:36:01 00:28:18 6.194 00:04:34
241230SM3531713SANTOPADRE LUCAA.S.D. ATLETICA MONTE MARIO01:36:25 01:36:02 00:28:18 6.194 00:04:34
242231SM5523553SIMONELLI FLAVIOA.S. AMATORI VILLA PAMPHILI01:36:29 01:36:22 00:28:22 6.205 00:04:34
243232SM45661019CENTURIONI ALESSANDRORUNCARD FIDAL01:36:31 01:36:13 00:28:24 6.210 00:04:34
244233SM5037409RAFFAELE NICOLAPODISTICA CASALOTTI01:36:33 01:36:23 00:28:26 6.215 00:04:35
245234SM50381029MASCARO ANTONIG.S. BANCARI ROMANI01:36:35 01:36:24 00:28:28 6.220 00:04:35
246235SM4567791VASSELLI MICHELEPOD. GRUPPO SOLIDARIETA01:36:36 01:36:31 00:28:29 6.223 00:04:35
247236SM50391135ARCASENZA CLAUDIOATLETICA FORUM SPORT CENTER01:36:36 01:36:34 00:28:29 6.223 00:04:35
248237SM605326PAOLUCCI MAURIZIORUNCARD FIDAL01:36:40 01:36:18 00:28:33 6.233 00:04:35
249238SM606215LANTERI GIUSEPPEA.S.C.D. ISOLA SACRA01:36:41 01:36:38 00:28:34 6.236 00:04:35
250239SM4568799DEL SETTE RAIMONDORUNCARD FIDAL01:36:42 01:36:20 00:28:35 6.238 00:04:35
251240SM50401274ABSI SADIDDINRUN FOREVER APRILIA01:36:44 01:36:37 00:28:37 6.243 00:04:35
252241SM552440EPIFANI GABRIELEA.S.D. LBM SPORT TEAM01:36:48 01:36:48 00:28:41 6.254 00:04:35
253242SM5041225ROMANI FABIOA.S.C.D. ISOLA SACRA01:36:48 01:35:31 00:28:41 6.254 00:04:35
254243SM40491170LEZOCHE GIOVANNIG.S. BANCARI ROMANI01:36:53 01:36:28 00:28:46 6.266 00:04:35
255244SM50421208GHISU FRANCESCOA.S.D. LIBERTAS OSTIA RUNNER AVIS01:36:53 01:36:43 00:28:46 6.266 00:04:35
256245SM40501140CAPASSO RAFFAELEATLETICA FORUM SPORT CENTER01:37:00 01:36:39 00:28:53 6.284 00:04:36
257246SM5525907CACIONI STEFANOOLIMPIA ATLETICA NETTUNO01:37:02 01:36:59 00:28:55 6.289 00:04:36
258247SM4051568CERRONE EMILIANOA.S.C.D. ISOLA SACRA01:37:03 01:36:33 00:28:56 6.292 00:04:36
259248SM4569883CARAVASILLIS MARCOA.S.D. PFIZER ITALIA RUNNING TEAM01:37:04 01:35:58 00:28:57 6.294 00:04:36
260249SM50431066MASTROPIETRO MASSIMOG.S. BANCARI ROMANI01:37:08 01:36:59 00:29:01 6.305 00:04:36
261250SM6531072NARDECCHIA CLAUDIOG.S. BANCARI ROMANI01:37:10 01:37:05 00:29:03 6.310 00:04:36
262251SM3532195AMICI MARCOA.S.D. ROMA ROAD RUNNERS CLUB01:37:11 01:36:58 00:29:04 6.312 00:04:36
263252SM4052872GIACCHETTI GIAMPAOLOOSTIA FAMILYRUNNING01:37:11 01:36:53 00:29:04 6.312 00:04:36
264253SM457091BITTARELLI GUGLIELMOA.S.D. LBM SPORT TEAM01:37:13 01:37:05 00:29:06 6.317 00:04:36
265254SM5044168CORRAO MARIOA.S.D. SMACLIBERTY01:37:16 01:37:01 00:29:09 6.325 00:04:37
266255SM5526659ZAPPALA' ENRICOCALCATERRA SPORT ASD01:37:19 01:37:07 00:29:12 6.332 00:04:37
267256SM5045434FERRARA PARIDEA.S.D. CORSA DEI SANTI01:37:22 01:36:21 00:29:15 6.340 00:04:37
268257SM4571599FALZOI MAURIZIOA.S.D. LBM SPORT TEAM01:37:23 01:36:58 00:29:16 6.342 00:04:37
269258SM4053988PINTORE MASSIMOIPPOLIFE SSD01:37:27 01:36:37 00:29:20 6.353 00:04:37
270259SM35331190MOSCA VALERIOPOD. GRUPPO SOLIDARIETA01:37:27 01:37:00 00:29:20 6.353 00:04:37
271260SM5046139STABILE ANTONIOG.S. PETER PAN01:37:31 01:37:03 00:29:24 6.363 00:04:37
272261SM4572908ALESSANDRELLI STEFANORUNNERS FOR EMERGENCY01:37:33 01:37:14 00:29:26 6.368 00:04:37
273262SM20692INGARELLI LORENZOA.S.D. ATLETICA MONTE MARIO01:37:35 01:37:17 00:29:28 6.373 00:04:37
274263SM4573321GORI GIANLUCAMONTI DELLA TOLFA L'AIRONE01:37:44 01:37:15 00:29:37 6.395 00:04:38
275264SM552783CIRIGLIANO PIETROMARATHON ROMA CASTELFUSANO01:37:44 01:37:32 00:29:37 6.395 00:04:38
276265SM5047690GELLI ALESSANDROA.S.D. ATLETICA MONTE MARIO01:37:46 01:37:23 00:29:39 6.400 00:04:38
277266SM55281221BRESCINI FABIOA.S.D. CORSA DEI SANTI01:37:46 01:37:24 00:29:39 6.400 00:04:38
278267SM5048884BRUNETTI BRUNOA.S.D. PFIZER ITALIA RUNNING TEAM01:37:48 01:36:42 00:29:41 6.405 00:04:38
279268SM4054806DI CARLO CRISTIANRUNCARD01:37:52 01:36:46 00:29:45 6.415 00:04:38
280269SM4055800BITETTI MARCOA.S.D. ATLETICA ENERGIA ROMA01:37:58 01:37:51 00:29:51 6.430 00:04:39
281270SM3534165BERNABEI ALESSANDRORUNCARD FIDAL01:38:00 01:37:26 00:29:53 6.435 00:04:39
282271SM4574846MORGIA ANTONELLOG.S. CAT SPORT ROMA01:38:03 01:37:43 00:29:56 6.443 00:04:39
283272SM40561214PETRACCHINI FRANCESCOSABINA MARATHON CLUB01:38:07 01:37:51 00:30:00 6.453 00:04:39
284273SM5049180DE ANGELIS VALTERA.S.D. ATLETICA ENERGIA ROMA01:38:09 01:37:34 00:30:02 6.458 00:04:39
285274SM4575395MARTURANO RICCARDOPODISTICA CASALOTTI01:38:10 01:38:04 00:30:03 6.460 00:04:39
28612SF455411SALVIONI SIMONAPODISTICA CASALOTTI01:38:19 01:38:09 00:30:12 6.483 00:04:40
287275SM5529756MACCHINI DAVIDPOD. GRUPPO SOLIDARIETA01:38:21 01:38:17 00:30:14 6.488 00:04:40
288276SM50501186GUALTIERI FABIOPOD. GRUPPO SOLIDARIETA01:38:26 01:38:22 00:30:19 6.500 00:04:40
289277SM5051529MICHETTI GABRIELEA.S. AMATORI VILLA PAMPHILI01:38:30 01:37:18 00:30:23 6.510 00:04:40
290278SM553068ZARATTI ANGELOA.S.D. ROMATLETICA FOOTWORKS01:38:32 01:37:45 00:30:25 6.515 00:04:40
291279SM4576399CIVICA SANDROA.S.D. PIANO MA ARRIVIAMO01:38:34 01:38:15 00:30:27 6.520 00:04:40
292280SM45771215MAURIZI ANDREAO.S.O. OLD STARS OSTIA01:38:36 01:37:45 00:30:29 6.525 00:04:40
293281SM211117NATALINI ANDREAS.S. LAZIO ATLETICA01:38:39 01:38:01 00:30:32 6.532 00:04:40
294282SM5052290PICANO ENRICOPOLISPORTIVA COLLI ANIENE ASD01:38:41 01:38:16 00:30:34 6.537 00:04:41
295283SM4578871GREGORIO CRISTIANOOSTIA FAMILYRUNNING01:38:41 01:38:23 00:30:34 6.537 00:04:41
296284SM45791232QUISPE LOPEZ JOSE LUISA.S.D. ATLETICA MONTE MARIO01:38:41 01:37:41 00:30:34 6.537 00:04:41
297285SM221183GAIOLA DANIELEPOD. GRUPPO SOLIDARIETA01:38:49 01:38:00 00:30:42 6.557 00:04:41
298286SM5053576CONFORTI SERGIOASD ANGUILLARA SABAZIA RUNNING CLUB01:38:52 01:37:59 00:30:45 6.564 00:04:41
299287SM40571078PRIGGIONE MATTE' LUCAG.S. BANCARI ROMANI01:38:56 01:38:24 00:30:49 6.574 00:04:41
300288SM4580367TRAMMA DARIORUNCARD FIDAL01:38:57 01:38:46 00:30:50 6.576 00:04:41
301289SM40581191PALONI LUCAPOD. GRUPPO SOLIDARIETA01:39:00 01:38:01 00:30:53 6.584 00:04:41
302290SM50541176SCIFONI GIANLUCAA.S.D. LBM SPORT TEAM01:39:01 01:38:37 00:30:54 6.586 00:04:42
30313SF403103JEDRUSIK MAGDALENA AGATARUNCARD FIDAL01:39:01 01:38:54 00:30:54 6.586 00:04:42
304291SM3535511GIOVANNETTI DARIOA.S. AMATORI VILLA PAMPHILI01:39:02 01:38:48 00:30:55 6.588 00:04:42
305292SM654611DONNINI ALBERTOASD PUROSANGUE ATHLETICS CLUB01:39:04 01:38:42 00:30:57 6.593 00:04:42
306293SM40591234D'ORIA NICOLAPOD. GRUPPO SOLIDARIETA01:39:05 01:38:30 00:30:58 6.596 00:04:42
307294SM5055523MARCOCCI MARCOA.S. AMATORI VILLA PAMPHILI01:39:08 01:38:49 00:31:01 6.603 00:04:42
30814SF3485CHAN SELINAA.S. AMATORI VILLA PAMPHILI01:39:08 01:38:53 00:31:01 6.603 00:04:42
309295SM5531356MANCINI MAUROA.S.D. ROMA ROAD RUNNERS CLUB01:39:08 01:39:03 00:31:01 6.603 00:04:42
310296SM23442BERARDI DAVIDEA.S.D. LBM SPORT TEAM01:39:09 01:38:55 00:31:02 6.606 00:04:42
311297SM406064MATTEUCCI FRANCESCOA.S.C.D. ISOLA SACRA01:39:12 01:38:46 00:31:05 6.613 00:04:42
312298SM6071196TORELLI GIOVANNI BATTISTAPOD. GRUPPO SOLIDARIETA01:39:13 01:38:41 00:31:06 6.615 00:04:42
313299SM5056766NARSETE STEFANOPOD. GRUPPO SOLIDARIETA01:39:14 01:37:59 00:31:07 6.618 00:04:42
314300SM4581384CAPPELLI STEFANOPODISTICA CASALOTTI01:39:15 01:39:00 00:31:08 6.620 00:04:42
315301SM24353RIPÀ GIANLUCAOLGIATA 20.1201:39:17 01:38:48 00:31:10 6.625 00:04:42
316302SM5057649BRASILI LUIGINODUE PONTI SRL01:39:18 01:38:58 00:31:11 6.627 00:04:42
317303SM4582821BRIENZA MAUROG.S. CAT SPORT ROMA01:39:19 01:39:02 00:31:12 6.630 00:04:42
318304SM25985IADAROLA GIOVANNIRUNCARD FIDAL01:39:21 01:38:09 00:31:14 6.635 00:04:42
319305SM7011193PIPINI MARIOPOD. GRUPPO SOLIDARIETA01:39:23 01:39:20 00:31:16 6.640 00:04:43
320306SM4061915CAREDDA LUCIANORUNNERS FOR EMERGENCY01:39:26 01:39:11 00:31:19 6.647 00:04:43
32115SF4937PANTANO ARIANNARUNNERS FOR EMERGENCY01:39:29 01:39:10 00:31:22 6.654 00:04:43
322307SM4062914CARDELLI TIZIANORUNNERS FOR EMERGENCY01:39:29 01:39:09 00:31:22 6.654 00:04:43
323308SM4063450VALERI GIOVANNIMEDITERRANEA OSTIA01:39:33 01:39:01 00:31:26 6.664 00:04:43
324309SM50581087TAGLIACOZZO SERGIOG.S. BANCARI ROMANI01:39:42 01:38:40 00:31:35 6.686 00:04:43
325310SM55321063MARCHESE GIOVANNIG.S. BANCARI ROMANI01:39:46 01:39:14 00:31:39 6.695 00:04:44
32616SF5011049GALIONE IDAG.S. BANCARI ROMANI01:39:46 01:39:13 00:31:39 6.695 00:04:44
327311SM4583618CASTAGNA ANTONIORCC TEVERE REMO01:39:47 01:39:04 00:31:40 6.698 00:04:44
328312SM4064807VENTRONE GENNAROASD SEMPRE DI CORSA TEAM01:39:49 01:39:39 00:31:42 6.702 00:04:44
32917SF551719VERDIGLIONE MARISAA.S.D. ATLETICA MONTE MARIO01:39:49 01:39:48 00:31:42 6.702 00:04:44
330313SM4065278COVA PAOLO ANGELOG.S. BANCARI ROMANI01:39:51 01:38:29 00:31:44 6.707 00:04:44
331314SM4066224RACO MASSIMILIANOA.S.C.D. ISOLA SACRA01:39:53 01:39:32 00:31:46 6.712 00:04:44
332315SM3536230VENERI SIMONEA.S.C.D. ISOLA SACRA01:39:54 01:39:34 00:31:47 6.714 00:04:44
333316SM55331098SICILIANI RICCARDOMARATHON ROMA CASTELFUSANO01:39:59 01:39:38 00:31:52 6.726 00:04:44
334317SM4584650MAZZETTI FRANCESCODUE PONTI SRL01:40:04 01:39:45 00:31:57 6.738 00:04:45
335318SM5059190BUGARINI GIULIOA.S.D. ROMATLETICA FOOTWORKS01:40:07 01:39:55 00:32:00 6.746 00:04:45
336319SM40671024BRUNETTA BRUNOASD CLUB ATLETICO CENTRALE ROMA01:40:08 01:38:58 00:32:01 6.748 00:04:45
337320SM45851118NATALINI PAOLOS.S. LAZIO ATLETICA01:40:11 01:39:33 00:32:04 6.755 00:04:45
338321SM4068258OTTAVIANI CLAUDIORUNCARD FIDAL01:40:14 01:39:59 00:32:07 6.762 00:04:45
339322SM5060239BORTOLAMI MASSIMOA.S.D. ATLETICA VILLA GUGLIELMI01:40:15 01:40:05 00:32:08 6.765 00:04:45
340323SM4586202TENTONI RICCARDORUNCARD FIDAL01:40:19 01:40:10 00:32:12 6.774 00:04:45
34118SF456157BALWAS WIOLETTAGRUPPO MILLEPIEDI LADISPOLI01:40:20 01:40:16 00:32:13 6.777 00:04:45
34219SF404731BINI TIZIANAPOD. GRUPPO SOLIDARIETA01:40:27 01:40:00 00:32:20 6.793 00:04:46
343324SM5534762MATTIOLI RICCARDOPOD. GRUPPO SOLIDARIETA01:40:28 01:39:57 00:32:21 6.796 00:04:46
344325SM4587177CIARLA MARCOS.S. LAZIO ATLETICA01:40:31 01:40:25 00:32:24 6.803 00:04:46
345326SM26897TAMBURINI PIETROA.S.D. PFIZER ITALIA RUNNING TEAM01:40:32 01:39:37 00:32:25 6.805 00:04:46
34620SF457992DELLA GIOVANNA ALLEGRADUE PONTI SRL01:40:33 01:40:14 00:32:26 6.807 00:04:46
347327SM50611130NASUTI FRANCESCOG.S. CAT SPORT ROMA01:40:35 01:40:04 00:32:28 6.812 00:04:46
348328SM4069262MARINELLI DANIELERUNCARD FIDAL01:40:35 01:40:31 00:32:28 6.812 00:04:46
349329SM4588703MINCIACCHI ANDREAA.S.D. ATLETICA MONTE MARIO01:40:36 01:40:21 00:32:29 6.815 00:04:46
350330SM50621115MAZZETTI JACOPOS.S. LAZIO ATLETICA01:40:37 01:40:01 00:32:30 6.817 00:04:46
351331SM4070810LANERA MARCELLOTOP RUNNERS CASTELLI ROMANI01:40:40 01:40:31 00:32:33 6.824 00:04:46
352332SM6081279RAMPINI ARCANGELOASD PALESTRINA RUNNING01:40:44 01:40:32 00:32:37 6.833 00:04:46
353333SM6551033CASTELLANA LEONEG.S. BANCARI ROMANI01:40:47 01:40:43 00:32:40 6.841 00:04:47
354334SM4071355DE ANGELIS FABIORUNCARD FIDAL01:40:48 01:40:23 00:32:41 6.843 00:04:47
355335SM40721086SIRGHI DORING.S. BANCARI ROMANI01:40:48 01:40:42 00:32:41 6.843 00:04:47
356336SM4073217LUCHETTA ANDREAA.S.C.D. ISOLA SACRA01:40:49 01:40:19 00:32:42 6.845 00:04:47
357337SM3537156ARCIUOLO GIANLUCAGRUPPO MILLEPIEDI LADISPOLI01:40:49 01:40:24 00:32:42 6.845 00:04:47
358338SM506355BOLDRINI ALESSANDROMARATHON ROMA CASTELFUSANO01:40:51 01:40:46 00:32:44 6.850 00:04:47
359339SM5535705MONDELLO DINOA.S.D. ATLETICA MONTE MARIO01:40:54 01:39:48 00:32:47 6.857 00:04:47
360340SM656619CUCCHI  FREDERICKRCC TEVERE REMO01:40:55 01:40:11 00:32:48 6.859 00:04:47
361341SM5064638POLLIO MASSIMOMARATHON ROMA CASTELFUSANO01:40:58 01:40:12 00:32:51 6.866 00:04:47
362342SM2741ACCARDO MARCOPOD. GRUPPO SOLIDARIETA01:40:59 01:40:01 00:32:52 6.869 00:04:47
36321SF4051071NANIA EDWIGEG.S. BANCARI ROMANI01:40:59 01:40:27 00:32:52 6.869 00:04:47
364343SM5065391LUCCI ROBERTOPODISTICA CASALOTTI01:41:04 01:40:49 00:32:57 6.881 00:04:47
365344SM6091286RICCI CLAUDIORUNCARD FIDAL01:41:05 01:40:25 00:32:58 6.883 00:04:47
366345SM50661285DI BARI DANIELERUNCARD FIDAL01:41:06 01:40:26 00:32:59 6.885 00:04:47
367346SM5536471ATZENI PIETROA.S. AMATORI VILLA PAMPHILI01:41:08 01:40:58 00:33:01 6.890 00:04:48
368347SM4074666TUFO MASSIMILIANORUNCARD FIDAL01:41:13 01:40:49 00:33:06 6.902 00:04:48
369348SM4589398CASSIANI ANDREAA.S.D. PIANO MA ARRIVIAMO01:41:13 01:40:43 00:33:06 6.902 00:04:48
370349SM4590402FRANCESCHI FEDERICOA.S.D. PIANO MA ARRIVIAMO01:41:14 01:40:45 00:33:07 6.904 00:04:48
37122SF4061174COPPA AGNESEOLIMPIA 200401:41:14 01:40:41 00:33:07 6.904 00:04:48
372350SM4075328ZUCCHERI EMANUELRUNCARD FIDAL01:41:15 01:41:05 00:33:08 6.906 00:04:48
373351SM4076183DI PAOLO DANIELEA.S.D. X-SOLID SPORT LAB01:41:18 01:40:42 00:33:11 6.913 00:04:48
374352SM5537458BONANNI CESAREASD U.S. ROMA 8301:41:23 01:41:01 00:33:16 6.925 00:04:48
375353SM5067574BIGAGLI MARCOASD ANGUILLARA SABAZIA RUNNING CLUB01:41:23 01:40:32 00:33:16 6.925 00:04:48
376354SM657665NOBILE GIUSEPPEOSTIA ANTICA ATHLETAE01:41:26 01:41:18 00:33:19 6.932 00:04:48
377355SM4077483CASANO CLAUDIOA.S. AMATORI VILLA PAMPHILI01:41:29 01:40:20 00:33:22 6.939 00:04:49
378356SM3538865DI MURRO MARCOA.S.D. AMATORI TOP RUNNERS CASTELLI ROMANI01:41:30 01:40:50 00:33:23 6.941 00:04:49
379357SM4591575ROSSI CRISTIANOASD ATLETICO MONTEROTONDO01:41:31 01:41:05 00:33:24 6.944 00:04:49
380358SM50681116MIGNATTI FABIOS.S. LAZIO ATLETICA01:41:32 01:40:10 00:33:25 6.946 00:04:49
381359SM5538789TOSTI FEDERICOPOD. GRUPPO SOLIDARIETA01:41:34 01:40:18 00:33:27 6.951 00:04:49
382360SM4592435MARROCCHINI ANDREAASD PODISTICA PRIMAVALLE01:41:35 01:41:10 00:33:28 6.953 00:04:49
383361SM658853SALATINO GIUSEPPEG.S. CAT SPORT ROMA01:41:40 01:41:33 00:33:33 6.964 00:04:49
384362SM45931002TOROSANTUCCI MARCODUE PONTI SRL01:41:41 01:41:20 00:33:34 6.967 00:04:49
385363SM45941003VIOLA FEDERICODUE PONTI SRL01:41:41 01:41:01 00:33:34 6.967 00:04:49
386364SM45951302PENTA EMANUELEA.S. AMATORI VILLA PAMPHILI01:41:48 01:41:11 00:33:41 6.983 00:04:49
387365SM5069363DE SOSSI ARMANDOA.S.D. ATLETICA PEGASO01:41:51 01:41:44 00:33:44 6.990 00:04:50
388366SM6010796BIANCHI EDOARDO CORRADOA.S.D. ATLETICA POMEZIA01:41:53 01:41:21 00:33:46 6.995 00:04:50
389367SM5070991COLUCCI FABIODUE PONTI SRL01:41:53 01:41:44 00:33:46 6.995 00:04:50
390368SM40781122D'AMATO FEDERICOA.S.D. FREE RUNNERS01:41:55 01:41:29 00:33:48 6.999 00:04:50
391369SM40791227CHIARINI ENRICOASD OLIMPIAEUR CAMP01:41:56 01:41:20 00:33:49 7.001 00:04:50
392370SM4080577CICCARELLI GIAMPAOLOASD ATLETICO MONTEROTONDO01:42:01 01:41:35 00:33:54 7.013 00:04:50
39323SF502591LAZZARO LAURAIPPOLIFE SSD01:42:04 01:41:48 00:33:57 7.020 00:04:50
394371SM3539221PAGLIUCA STEFANOA.S.C.D. ISOLA SACRA01:42:06 01:41:38 00:33:59 7.024 00:04:50
395372SM55391223LENTINI MASSIMORUNNING CLUB MARATONA DI ROMA01:42:07 01:39:29 00:34:00 7.027 00:04:50
396373SM659798VIOLA LUCIANO ANTONIOATLETICA LAGOS DEI MARSI01:42:08 01:42:05 00:34:01 7.029 00:04:50
397374SM281245RUSSO VINCENZOG.S. CAT SPORT ROMA01:42:12 01:41:30 00:34:05 7.038 00:04:51
398375SM3540488CIAVAGLIA FEDERICOA.S. AMATORI VILLA PAMPHILI01:42:13 01:41:31 00:34:06 7.041 00:04:51
399376SM5540444NARDUZZI MASSIMILIANOASD TRAIL DEI DUE LAGHI01:42:15 01:41:22 00:34:08 7.045 00:04:51
400377SM5541310FRASCARELLI LUCAA.S.D. ATLETICA PEGASO01:42:20 01:42:12 00:34:13 7.057 00:04:51
401378SM4081687FORIN MIRKOA.S.D. ATLETICA MONTE MARIO01:42:21 01:40:56 00:34:14 7.059 00:04:51
402379SM45961091ZAMPETTI MAURIZIOG.S. BANCARI ROMANI01:42:21 01:41:49 00:34:14 7.059 00:04:51
403380SM5542615RECCHIA DOMENICOASD SEMPRE DI CORSA TEAM01:42:22 01:41:30 00:34:15 7.061 00:04:51
404381SM45971141CAPRIOTTI GIANFILIPPOATLETICA FORUM SPORT CENTER01:42:22 01:41:34 00:34:15 7.061 00:04:51
40524SF3511095FAZIO CANDIANAJUVENIA SSD A.R.L.01:42:23 01:42:12 00:34:16 7.063 00:04:51
406382SM5071620LAVITOLA  LIVIORCC TEVERE REMO01:42:26 01:41:42 00:34:19 7.070 00:04:51
407383SM5072216LOFFREDO ANTONIOA.S.C.D. ISOLA SACRA01:42:27 01:41:59 00:34:20 7.073 00:04:51
408384SM5073948VALLONE DAVIDRUNNERS FOR EMERGENCY01:42:28 01:42:08 00:34:21 7.075 00:04:51
40925SF407909ALESSANDRELLI MARUSKARUNNERS FOR EMERGENCY01:42:28 01:42:10 00:34:21 7.075 00:04:51
410385SM3541589DANUBIO SAVERIOIPPOLIFE SSD01:42:28 01:41:39 00:34:21 7.075 00:04:51
411386SM4598154ANNESSA ALESSANDRORUNNER TRAINER01:42:29 01:41:25 00:34:22 7.077 00:04:51
41226SF352916COGNETTI MICHELARUNNERS FOR EMERGENCY01:42:30 01:42:09 00:34:23 7.079 00:04:51
413387SM4599973FORESI FABIOFARATLETICA01:42:32 01:41:12 00:34:25 7.084 00:04:52
414388SM3542504PADOVANI AUGUSTOA.S. AMATORI VILLA PAMPHILI01:42:33 01:40:59 00:34:26 7.086 00:04:52
41527SF3531137BRUNETTI MAYAATLETICA FORUM SPORT CENTER01:42:34 01:42:22 00:34:27 7.089 00:04:52
416389SM55431108CALICCHIA WALTERS.S. LAZIO ATLETICA01:42:35 01:41:35 00:34:28 7.091 00:04:52
417390SM5544552SIGNORINI LUCAA.S. AMATORI VILLA PAMPHILI01:42:35 01:42:12 00:34:28 7.091 00:04:52
418391SM4082813IENCO CLAUDIOGRUPPO PODISTICO PERSOMIL A.S.D.01:42:37 01:42:22 00:34:30 7.095 00:04:52
419392SM45100436MU ALBERTOA.S.C.D. ISOLA SACRA01:42:37 01:41:25 00:34:30 7.095 00:04:52
420393SM5074263ARONICA CLAUDIOA.S.D. PODISTICA ALSIVM LADISPOLI01:42:38 01:41:40 00:34:31 7.098 00:04:52
421394SM4083265DI GIANNICOLA EMILIANOA.S.D. PODISTICA ALSIVM LADISPOLI01:42:38 01:41:40 00:34:31 7.098 00:04:52
422395SM5075129COLARIETI MASSIMILIANORUNCARD FIDAL01:42:47 01:42:11 00:34:40 7.118 00:04:52
423396SM6011683DI NICOLA MAUROA.S.D. ATLETICA MONTE MARIO01:42:49 01:41:35 00:34:42 7.123 00:04:52
424397SM4084182BELLAVITE LUCAA.S.D. X-SOLID SPORT LAB01:42:50 01:42:14 00:34:43 7.125 00:04:52
425398SM50761255VISCONTI MARCOCIRCOLO MAGISTRATI CORTE DEI CONTI01:42:56 01:42:18 00:34:49 7.138 00:04:53
426399SM45101213FRANCESCHINI DANILOA.S.C.D. ISOLA SACRA01:42:59 01:42:41 00:34:52 7.145 00:04:53
427400SM5077896VICINI MAUROA.S.D. FORHANS TEAM01:43:01 01:41:52 00:34:54 7.150 00:04:53
428401SM5078533MUSTÈ STEFANOA.S. AMATORI VILLA PAMPHILI01:43:04 01:42:37 00:34:57 7.157 00:04:53
429402SM50791136AVOLIO GIUSEPPEATLETICA FORUM SPORT CENTER01:43:04 01:42:43 00:34:57 7.157 00:04:53
430403SM45102493CORSINI DIEGOA.S. AMATORI VILLA PAMPHILI01:43:05 01:42:59 00:34:58 7.159 00:04:53
431404SM45103989AVINO ANDREADUE PONTI SRL01:43:06 01:42:53 00:34:59 7.161 00:04:53
432405SM5545196PASSERI GIUSEPPERUNCARD FIDAL01:43:06 01:42:42 00:34:59 7.161 00:04:53
43328SF354688GALEOTTI FRANCESCAA.S.D. ATLETICA MONTE MARIO01:43:06 01:42:52 00:34:59 7.161 00:04:53
434406SM35431144CORSI DANIELEATLETICA FORUM SPORT CENTER01:43:07 01:42:46 00:35:00 7.163 00:04:53
435407SM50801015NUZZI PIER FRANCESCOTENNIS CLUB PARIOLI01:43:07 01:42:19 00:35:00 7.163 00:04:53
436408SM5081892GIUSTI MARCOA.S.D. PFIZER ITALIA RUNNING TEAM01:43:08 01:42:37 00:35:01 7.166 00:04:53
437409SM45104246IAQUINTA MASSIMOA.S.D. ATLETICA VILLA GUGLIELMI01:43:10 01:42:43 00:35:03 7.170 00:04:53
438410SM5546358MARRONE VINCENZOADS BIANCO MODA SPORT - CIAMPINO01:43:11 01:42:41 00:35:04 7.172 00:04:53
439411SM45105330MANCINI ANDREAA.S.D. ATLETICA TUSCULUM01:43:11 01:42:31 00:35:04 7.172 00:04:53
440412SM50821280VITTA GIUSEPPEG.P. PERSOMIL01:43:13 01:42:45 00:35:06 7.177 00:04:53
441413SM5083295GIOVANNINI VINCENZOUSIP COMITATO TERR.LE LATINA01:43:14 01:42:44 00:35:07 7.179 00:04:54
442414SM50848CHIOMINTO TIZIANOTOP RUNNERS CASTELLI ROMANI01:43:14 01:43:09 00:35:07 7.179 00:04:54
443415SM451061229SANTORO ANDREAASD PUROSANGUE ATHLETICS CLUB01:43:15 01:42:44 00:35:08 7.181 00:04:54
444416SM29495DE ANNUNTIIS GIORGIOA.S. AMATORI VILLA PAMPHILI01:43:17 01:42:32 00:35:10 7.186 00:04:54
445417SM5547959STRAMACCIONI MARIOA.S. AMATORI VILLA PAMPHILI01:43:19 01:42:08 00:35:12 7.190 00:04:54
446418SM45107149CAMPANELLI ANDREARUNCARD FIDAL01:43:22 01:42:44 00:35:15 7.197 00:04:54
447419SM6012653BELLI ROBERTOASD OLIMPIAEUR CAMP01:43:22 01:43:00 00:35:15 7.197 00:04:54
448420SM5548385CARICILLI GIANCARLOPODISTICA CASALOTTI01:43:24 01:42:42 00:35:17 7.202 00:04:54
44929SF503792ZAMPARELLI CARLOTTAPOD. GRUPPO SOLIDARIETA01:43:30 01:43:01 00:35:23 7.215 00:04:54
45030SF458209DI GIOVANNI FLORIANAA.S.C.D. ISOLA SACRA01:43:32 01:43:06 00:35:25 7.219 00:04:54
451421SM55491013BATTAGLIA MAURIZIOTENNIS CLUB PARIOLI01:43:32 01:42:45 00:35:25 7.219 00:04:54
452422SM702842MAISANO SANTOG.S. CAT SPORT ROMA01:43:36 01:43:28 00:35:29 7.228 00:04:55
453423SM5085878DELL'ANNO MAURIZIOO.S.O. OLD STARS OSTIA01:43:40 01:42:28 00:35:33 7.237 00:04:55
454424SM45108254SCOPELLITI GIOVANNIA.S.D. ATLETICA VILLA GUGLIELMI01:43:41 01:43:31 00:35:34 7.240 00:04:55
455425SM5086886CAGGIA DANILOA.S.D. PFIZER ITALIA RUNNING TEAM01:43:42 01:43:32 00:35:35 7.242 00:04:55
456426SM4085539PIERANTONI SIMONEA.S. AMATORI VILLA PAMPHILI01:43:43 01:42:15 00:35:36 7.244 00:04:55
457427SM4086526MASTROLUCA MATTEOA.S. AMATORI VILLA PAMPHILI01:43:43 01:42:36 00:35:36 7.244 00:04:55
458428SM3544980SANSONE INNOCENZORUNCARD FIDAL01:43:45 01:43:18 00:35:38 7.248 00:04:55
459429SM5550847MUSTO ANGELO RAFFAELEG.S. CAT SPORT ROMA01:43:47 01:43:43 00:35:40 7.253 00:04:55
460430SM5551997GIANNINI MAURODUE PONTI SRL01:43:48 01:43:27 00:35:41 7.255 00:04:55
461431SM5087111UNEDDU SALVATOREFULMINI E SAETTE A.S.D.01:43:49 01:42:31 00:35:42 7.257 00:04:55
462432SM4087105MARIANI SIMONERUNCARD FIDAL01:43:51 01:43:12 00:35:44 7.262 00:04:55
463433SM5552744DE LELLIS MAURIZIOPOD. GRUPPO SOLIDARIETA01:43:51 01:42:33 00:35:44 7.262 00:04:55
464434SM45109454D'UFFIZI ROBERTOA.S.D. ROMA ROAD RUNNERS CLUB01:43:51 01:43:35 00:35:44 7.262 00:04:55
465435SM3545777RAMPIONI LUCAPOD. GRUPPO SOLIDARIETA01:43:53 01:43:23 00:35:46 7.266 00:04:55
46631SF5041009ZERVOS THI KIM THUFORHANS TEAM01:43:54 01:43:51 00:35:47 7.268 00:04:55
467436SM5088694LELLI ANGELICOA.S.D. ATLETICA MONTE MARIO01:43:55 01:43:51 00:35:48 7.271 00:04:55
46832SF408593PAGLIARI FEDERICAIPPOLIFE SSD01:43:56 01:43:40 00:35:49 7.273 00:04:56
469437SM30486CHIARIZIA FRANCESCOA.S. AMATORI VILLA PAMPHILI01:43:57 01:43:51 00:35:50 7.275 00:04:56
470438SM555397GALBANI FABIOA.S.D. LBM SPORT TEAM01:43:57 01:43:25 00:35:50 7.275 00:04:56
471439SM5554540PILONI PAOLOA.S. AMATORI VILLA PAMPHILI01:43:59 01:43:40 00:35:52 7.280 00:04:56
472440SM5089716CARDINALETTI ALESSANDROMARATHON ROMA CASTELFUSANO01:43:59 01:43:53 00:35:52 7.280 00:04:56
47333SF459594PROSPERI BARBARAIPPOLIFE SSD01:44:00 01:43:43 00:35:53 7.282 00:04:56
474441SM4088551SCANNAVINO SIMONEA.S. AMATORI VILLA PAMPHILI01:44:00 01:43:44 00:35:53 7.282 00:04:56
475442SM45110297LA MONICA EMILIANORUNCARD FIDAL01:44:04 01:42:25 00:35:57 7.291 00:04:56
476443SM5555306AMATUCCI DARIOA.S.D. ATLETICA PEGASO01:44:05 01:43:57 00:35:58 7.293 00:04:56
477444SM5090303BALIVA CORRADOA.S.D. ATLETICA SANTA MARINELLA01:44:08 01:43:42 00:36:01 7.299 00:04:56
478445SM3546498DI GRAZIA IVAN DANIELA.S. AMATORI VILLA PAMPHILI01:44:08 01:44:00 00:36:01 7.299 00:04:56
479446SM45111227TORNESE PAOLOA.S.C.D. ISOLA SACRA01:44:08 01:43:49 00:36:01 7.299 00:04:56
48034SF45101099MORARU ANGELAASD SEMPRE DI CORSA TEAM01:44:09 01:43:17 00:36:02 7.302 00:04:56
481447SM451121112GIOVAGNOLI VALERIOS.S. LAZIO ATLETICA01:44:09 01:43:04 00:36:02 7.302 00:04:56
482448SM45113264COSCIONE LUIGIA.S.D. PODISTICA ALSIVM LADISPOLI01:44:09 01:43:12 00:36:02 7.302 00:04:56
483449SM5091492CORIROSSI MASSIMILIANOA.S. AMATORI VILLA PAMPHILI01:44:10 01:43:00 00:36:03 7.304 00:04:56
484450SM555666MARTORELLI ROBERTOA.S.D. ROMATLETICA FOOTWORKS01:44:10 01:43:13 00:36:03 7.304 00:04:56
485451SM3547978CESCHEL FEDERICOASD RUNNER TRAINER01:44:11 01:43:13 00:36:04 7.306 00:04:56
486452SM4089945STEPHAN FABRIZIORUNNERS FOR EMERGENCY01:44:14 01:43:53 00:36:07 7.313 00:04:56
48735SF3551050GIAMBUZZI ANTONIETTA FRANCESCAG.S. BANCARI ROMANI01:44:21 01:44:13 00:36:14 7.328 00:04:57
488453SM5557342MICO' FABRIZIOPOD. OSTIA01:44:23 01:43:55 00:36:16 7.333 00:04:57
489454SM5092361CORTESE MAURIZIOA.S.D. ATLETICA PEGASO01:44:25 01:44:16 00:36:18 7.337 00:04:57
490455SM5558919CRESCENZI FEDERICORUNNERS FOR EMERGENCY01:44:29 01:44:10 00:36:22 7.346 00:04:57
491456SM4090559TREGLIA PAOLOA.S. AMATORI VILLA PAMPHILI01:44:31 01:43:24 00:36:24 7.350 00:04:57
492457SM45114858DONINI GIANLUCARUNCARD FIDAL01:44:32 01:44:10 00:36:25 7.352 00:04:57
49336SF505940PESAVENTO LIVIARUNNERS FOR EMERGENCY01:44:32 01:44:12 00:36:25 7.352 00:04:57
494458SM45115695LUCA' DANILOA.S.D. ATLETICA MONTE MARIO01:44:33 01:44:00 00:36:26 7.354 00:04:57
495459SM5093939PECORARO SERGIORUNNERS FOR EMERGENCY01:44:40 01:44:18 00:36:33 7.370 00:04:58
496460SM50941222SPINARDI ANDREAA.S.D. CORSA DEI SANTI01:44:44 01:44:20 00:36:37 7.379 00:04:58
497461SM50951289MENICHELLI ANGELOASD VILLA DE SANCTIS01:44:47 01:43:46 00:36:40 7.385 00:04:58
498462SM45116881ROMANO ALESSANDROA.S.D. ATLETICA MONTE MARIO01:44:53 01:43:37 00:36:46 7.398 00:04:58
499463SM31565FRANGELLA ALESSANDROAMICI PARCO CASTELLI ROMANI01:44:54 01:44:27 00:36:47 7.400 00:04:58
500464SM55591064MARCHESE MARIOG.S. BANCARI ROMANI01:44:56 01:44:05 00:36:49 7.405 00:04:58
501465SM451171031CAMBONI MASSIMILIANOG.S. BANCARI ROMANI01:44:57 01:44:27 00:36:50 7.407 00:04:58
502466SM3548126CIPOLLONE FERDINANDOASD PUROSANGUE ATHLETICS CLUB01:45:02 01:44:22 00:36:55 7.418 00:04:59
503467SM32679D'AFFLISIO LUCAA.S.D. ATLETICA MONTE MARIO01:45:02 01:43:36 00:36:55 7.418 00:04:59
504468SM3549200COLACE RAFFAELEASD PUROSANGUE ATHLETICS CLUB01:45:02 01:44:23 00:36:55 7.418 00:04:59
50537SF4511773PIRAS ROBERTAPOD. GRUPPO SOLIDARIETA01:45:02 01:44:23 00:36:55 7.418 00:04:59
506469SM45118758MARIANECCI FABIOPOD. GRUPPO SOLIDARIETA01:45:03 01:44:25 00:36:56 7.420 00:04:59
507470SM4091569DI DOMENICO ENRICOA.S.C.D. ISOLA SACRA01:45:07 01:44:38 00:37:00 7.429 00:04:59
508471SM451191149DE GIACOMO LUCAATLETICA FORUM SPORT CENTER01:45:07 01:44:46 00:37:00 7.429 00:04:59
509472SM3550116PAVAN DANIELEEASYFIT PALESTRE SSD ARL01:45:10 01:44:00 00:37:03 7.435 00:04:59
510473SM5096852RUSCONI MARIOG.S. CAT SPORT ROMA01:45:10 01:44:45 00:37:03 7.435 00:04:59
511474SM451201185GASPARRI MARCOPOD. GRUPPO SOLIDARIETA01:45:12 01:43:43 00:37:05 7.439 00:04:59
512475SM35511084SCIALLA RICCARDOG.S. BANCARI ROMANI01:45:13 01:44:42 00:37:06 7.442 00:04:59
51338SF356304LA MANNA VALENTINA GIADAASD PLANET SPORT RUNNING01:45:13 01:44:42 00:37:06 7.442 00:04:59
514476SM50971083SANTOLINI ROBERTOG.S. BANCARI ROMANI01:45:16 01:45:03 00:37:09 7.448 00:04:59
515477SM6013926FEDELI IRENEORUNNERS FOR EMERGENCY01:45:19 01:44:31 00:37:12 7.455 00:04:59
516478SM4092360AMICI ALESSANDROA.S.D. ATLETICA PEGASO01:45:22 01:44:01 00:37:15 7.461 00:05:00
517479SM45121769PALUZZI ANDREAPOD. GRUPPO SOLIDARIETA01:45:22 01:44:05 00:37:15 7.461 00:05:00
518480SM5098600NAPOLI ALESSANDROA.S.D. LBM SPORT TEAM01:45:22 01:44:57 00:37:15 7.461 00:05:00
51939SF506783SPESCHA LAURAPOD. GRUPPO SOLIDARIETA01:45:23 01:44:58 00:37:16 7.463 00:05:00
52040SF4091206GENOVESE MERIA.S.D. LBM SPORT TEAM01:45:24 01:44:48 00:37:17 7.465 00:05:00
521481SM65101244HUAMAN ZUASNABAR TEODOSIOG.S. CAT SPORT ROMA01:45:24 01:45:16 00:37:17 7.465 00:05:00
52241SF507658GALLI JURKAASD OLIMPIAEUR CAMP01:45:25 01:44:47 00:37:18 7.468 00:05:00
523482SM5560558TRANTASO FRANCESCOA.S. AMATORI VILLA PAMPHILI01:45:28 01:45:19 00:37:21 7.474 00:05:00
524483SM451221055IANNICELLI EMILIANOG.S. BANCARI ROMANI01:45:28 01:44:41 00:37:21 7.474 00:05:00
525484SM5099125BALDI GABRIELEASD PUROSANGUE ATHLETICS CLUB01:45:28 01:44:49 00:37:21 7.474 00:05:00
52642SF5521128IOPPOLO ANGELINAG.S. CAT SPORT ROMA01:45:29 01:45:21 00:37:22 7.476 00:05:00
527485SM45123427D'INNOCENZO FABRIZIOPOL. UNIVERSITA' FORO ITALICO01:45:30 01:44:30 00:37:23 7.478 00:05:00
528486SM355280TROIANI DAVIDEDUE PONTI SRL01:45:32 01:44:08 00:37:25 7.483 00:05:00
52943SF5723MARTELLA COSTANZADUE PONTI SRL01:45:33 01:45:13 00:37:26 7.485 00:05:00
530487SM50100667BONACCI ROBERTORUNCARD FIDAL01:45:34 01:45:11 00:37:27 7.487 00:05:00
531488SM55611163SPADAFORA STEFANOATLETICA FORUM SPORT CENTER01:45:40 01:44:44 00:37:33 7.500 00:05:00
53244SF5081079PULVIRENTI ROSARIAG.S. BANCARI ROMANI01:45:41 01:45:29 00:37:34 7.502 00:05:00
533489SM45124244GAVIOLI GIULIANOA.S.D. ATLETICA VILLA GUGLIELMI01:45:42 01:45:16 00:37:35 7.504 00:05:01
534490SM33497DI BRANGO SIMONEA.S. AMATORI VILLA PAMPHILI01:45:43 01:44:10 00:37:36 7.506 00:05:01
535491SM50101463CAPUTO FRANCESCOFASHIONSPORT01:45:46 01:45:09 00:37:39 7.513 00:05:01
536492SM6511660PANTANELLA ANTONINOASD OLIMPIAEUR CAMP01:45:47 01:45:25 00:37:40 7.515 00:05:01
53745SF45121010GOVERNATORI GIOVANNAPOLISPORTIVA MONTALTO01:45:51 01:45:39 00:37:44 7.523 00:05:01
538493SM5562172FASCIOLO MARCOFIAMME AZZURRE MOVIMENTO E SPORT01:45:52 01:44:13 00:37:45 7.525 00:05:01
539494SM55631207CAVALAGLI CLAUDIOA.S.D. LBM SPORT TEAM01:45:54 01:45:17 00:37:47 7.530 00:05:01
540495SM5564274MANINI LUCIANOFIAMME AZZURRE MOVIMENTO E SPORT01:45:54 01:45:24 00:37:47 7.530 00:05:01
541496SM50102584GRIMANI MAUROA.S.D. TRA LE RIGHE01:45:59 01:45:23 00:37:52 7.540 00:05:01
542497SM5565220MORONI MASSIMOA.S.C.D. ISOLA SACRA01:46:01 01:44:50 00:37:54 7.545 00:05:01
543498SM6014564ZEDDE FRANCOA.S. AMATORI VILLA PAMPHILI01:46:04 01:45:52 00:37:57 7.551 00:05:02
544499SM45125711POLLI ANDREAA.S.D. ATLETICA MONTE MARIO01:46:06 01:44:49 00:37:59 7.555 00:05:02
545500SM34682DI NICOLA MATTEOA.S.D. ATLETICA MONTE MARIO01:46:07 01:44:52 00:38:00 7.557 00:05:02
546501SM45126166LOREFICE GIANLUCARUNCARD FIDAL01:46:08 01:45:59 00:38:01 7.560 00:05:02
547502SM45127749DI SILVESTRE MASSIMILIANOPOD. GRUPPO SOLIDARIETA01:46:10 01:45:24 00:38:03 7.564 00:05:02
54846SF553928FILOSOFI PAOLARUNNERS FOR EMERGENCY01:46:10 01:45:52 00:38:03 7.564 00:05:02
549503SM451281034CAVARRA MARCOG.S. BANCARI ROMANI01:46:13 01:45:53 00:38:06 7.570 00:05:02